createdAt,value
2023-04-05T00:00:09.846Z,4.47
2023-04-05T00:02:40.656Z,3.40
2023-04-05T00:05:09.756Z,4.27
2023-04-05T00:07:39.480Z,3.40
2023-04-05T00:10:07.784Z,3.83
2023-04-05T00:12:35.261Z,3.40
2023-04-05T00:15:04.592Z,3.90
2023-04-05T00:17:32.167Z,3.80
2023-04-05T00:19:59.890Z,3.90
2023-04-05T00:22:31.746Z,3.10
2023-04-05T00:25:00.690Z,3.30
2023-04-05T00:27:28.400Z,3.43
2023-04-05T00:29:56.105Z,4.20
2023-04-05T00:32:24.039Z,3.70
2023-04-05T00:34:51.919Z,3.30
2023-04-05T00:37:19.433Z,3.30
2023-04-05T00:39:46.938Z,3.47
2023-04-05T00:42:15.860Z,4.03
2023-04-05T00:44:43.457Z,3.67
2023-04-05T00:47:10.975Z,3.80
2023-04-05T00:49:38.850Z,3.13
2023-04-05T00:52:06.625Z,3.40
2023-04-05T00:54:34.197Z,3.63
2023-04-05T00:57:01.988Z,3.73
2023-04-05T00:59:30.843Z,2.87
2023-04-05T01:02:04.891Z,3.70
2023-04-05T01:04:33.969Z,3.70
2023-04-05T01:07:07.184Z,3.60
2023-04-05T01:09:38.940Z,3.67
2023-04-05T01:12:08.470Z,3.10
2023-04-05T01:14:49.951Z,3.70
2023-04-05T01:17:21.971Z,3.27
2023-04-05T01:19:53.186Z,3.70
2023-04-05T01:22:43.790Z,3.30
2023-04-05T01:25:49.243Z,3.57
2023-04-05T01:28:29.411Z,3.03
2023-04-05T01:31:03.237Z,3.83
2023-04-05T01:33:36.446Z,3.80
2023-04-05T01:36:07.945Z,3.77
2023-04-05T01:38:37.993Z,3.33
2023-04-05T01:41:05.652Z,4.17
2023-04-05T01:43:33.237Z,4.10
2023-04-05T01:46:02.166Z,4.10
2023-04-05T01:48:29.718Z,3.70
2023-04-05T01:50:57.161Z,4.20
2023-04-05T01:53:24.634Z,4.40
2023-04-05T01:55:52.100Z,3.60
2023-04-05T01:58:19.560Z,3.90
2023-04-05T02:00:47.153Z,4.37
2023-04-05T02:03:16.241Z,4.43
2023-04-05T02:05:44.116Z,4.37
2023-04-05T02:08:11.692Z,3.57
2023-04-05T02:10:39.513Z,3.60
2023-04-05T02:13:07.341Z,3.70
2023-04-05T02:15:35.162Z,3.93
2023-04-05T02:18:03.640Z,3.63
2023-04-05T02:20:32.897Z,4.10
2023-04-05T02:23:00.522Z,4.57
2023-04-05T02:25:28.001Z,3.70
2023-04-05T02:27:55.459Z,4.30
2023-04-05T02:30:22.892Z,3.50
2023-04-05T02:32:50.389Z,4.00
2023-04-05T02:35:18.242Z,3.63
2023-04-05T02:37:47.177Z,4.10
2023-04-05T02:40:15.786Z,3.90
2023-04-05T02:42:43.255Z,4.30
2023-04-05T02:45:11.431Z,4.07
2023-04-05T02:47:39.952Z,4.50
2023-04-05T02:50:08.437Z,3.87
2023-04-05T02:52:37.464Z,3.33
2023-04-05T02:55:07.301Z,3.67
2023-04-05T02:57:34.764Z,3.90
2023-04-05T03:00:02.450Z,4.23
2023-04-05T03:02:29.995Z,3.90
2023-04-05T03:04:57.541Z,3.73
2023-04-05T03:07:26.564Z,4.30
2023-04-05T03:09:54.279Z,4.57
2023-04-05T03:12:23.100Z,4.60
2023-04-05T03:14:50.651Z,3.73
2023-04-05T03:17:18.208Z,4.60
2023-04-05T03:19:46.395Z,4.53
2023-04-05T03:22:13.903Z,4.07
2023-04-05T03:24:42.442Z,3.87
2023-04-05T03:27:09.981Z,4.10
2023-04-05T03:29:38.758Z,3.97
2023-04-05T03:32:06.496Z,4.83
2023-04-05T03:34:33.969Z,5.00
2023-04-05T03:37:01.492Z,4.53
2023-04-05T03:39:29.265Z,4.97
2023-04-05T03:41:57.496Z,4.63
2023-04-05T03:44:24.989Z,3.53
2023-04-05T03:46:53.911Z,4.03
2023-04-05T03:49:21.900Z,4.47
2023-04-05T03:51:49.463Z,4.43
2023-04-05T03:54:17.018Z,4.27
2023-04-05T03:56:44.567Z,4.37
2023-04-05T03:59:12.081Z,4.67
2023-04-05T04:01:39.587Z,4.40
2023-04-05T04:04:08.452Z,3.70
2023-04-05T04:06:37.190Z,4.23
2023-04-05T04:09:05.650Z,4.50
2023-04-05T04:11:33.090Z,4.47
2023-04-05T04:14:00.652Z,3.97
2023-04-05T04:16:29.042Z,4.00
2023-04-05T04:18:56.943Z,3.27
2023-04-05T04:21:25.710Z,4.33
2023-04-05T04:23:53.179Z,3.10
2023-04-05T04:26:28.687Z,3.87
2023-04-05T04:28:56.224Z,4.17
2023-04-05T04:31:23.733Z,4.03
2023-04-05T04:33:51.624Z,5.73
2023-04-05T04:36:26.484Z,4.90
2023-04-05T04:38:55.362Z,5.20
2023-04-05T04:41:26.662Z,4.87
2023-04-05T04:43:54.957Z,6.40
2023-04-05T04:46:30.524Z,5.67
2023-04-05T04:48:58.666Z,7.17
2023-04-05T04:51:26.169Z,7.10
2023-04-05T04:53:55.174Z,6.87
2023-04-05T04:56:22.634Z,5.80
2023-04-05T04:58:50.139Z,5.73
2023-04-05T05:01:17.723Z,4.83
2023-04-05T05:03:45.446Z,4.10
2023-04-05T05:06:12.928Z,5.00
2023-04-05T05:08:40.438Z,3.87
2023-04-05T05:11:09.537Z,3.80
2023-04-05T05:13:37.243Z,4.53
2023-04-05T05:16:05.493Z,4.80
2023-04-05T05:18:32.961Z,4.07
2023-04-05T05:21:00.494Z,4.87
2023-04-05T05:23:28.537Z,4.47
2023-04-05T05:25:58.962Z,3.80
2023-04-05T05:28:30.242Z,4.30
2023-04-05T05:30:57.800Z,4.60
2023-04-05T05:33:25.645Z,3.90
2023-04-05T05:35:53.105Z,4.97
2023-04-05T05:38:20.627Z,4.70
2023-04-05T05:40:48.108Z,4.73
2023-04-05T05:43:16.213Z,4.80
2023-04-05T05:45:45.039Z,4.63
2023-04-05T05:48:12.531Z,6.10
2023-04-05T05:50:40.596Z,5.30
2023-04-05T05:53:08.370Z,5.00
2023-04-05T05:55:35.898Z,4.83
2023-04-05T05:58:03.736Z,4.10
2023-04-05T06:00:31.403Z,4.30
2023-04-05T06:03:01.621Z,4.80
2023-04-05T06:05:29.211Z,5.80
2023-04-05T06:07:56.708Z,4.73
2023-04-05T06:10:25.533Z,4.90
2023-04-05T06:12:52.982Z,5.00
2023-04-05T06:15:20.506Z,6.40
2023-04-05T06:17:48.037Z,7.67
2023-04-05T06:20:17.110Z,6.03
2023-04-05T06:22:44.577Z,6.20
2023-04-05T06:25:12.965Z,4.67
2023-04-05T06:27:40.534Z,5.73
2023-04-05T06:30:09.272Z,5.20
2023-04-05T06:32:36.958Z,4.47
2023-04-05T06:35:05.022Z,5.70
2023-04-05T06:37:33.887Z,5.60
2023-04-05T06:40:01.351Z,4.83
2023-04-05T06:42:28.936Z,5.33
2023-04-05T06:44:56.428Z,6.33
2023-04-05T06:47:23.926Z,4.97
2023-04-05T06:49:51.493Z,5.30
2023-04-05T06:52:18.959Z,4.60
2023-04-05T06:54:47.753Z,3.83
2023-04-05T06:57:15.286Z,4.90
2023-04-05T06:59:42.757Z,4.00
2023-04-05T07:02:10.398Z,4.90
2023-04-05T07:04:37.924Z,6.60
2023-04-05T07:07:06.161Z,4.73
2023-04-05T07:09:34.206Z,4.27
2023-04-05T07:12:06.411Z,5.23
2023-04-05T07:14:34.932Z,5.33
2023-04-05T07:17:02.651Z,4.07
2023-04-05T07:19:30.273Z,4.37
2023-04-05T07:21:57.940Z,4.50
2023-04-05T07:24:25.511Z,4.27
2023-04-05T07:26:53.192Z,4.73
2023-04-05T07:29:22.084Z,4.63
2023-04-05T07:31:49.599Z,4.60
2023-04-05T07:34:19.966Z,4.20
2023-04-05T07:36:47.860Z,3.90
2023-04-05T07:39:15.857Z,4.33
2023-04-05T07:41:43.476Z,4.80
2023-04-05T07:44:11.445Z,3.33
2023-04-05T07:46:45.119Z,3.87
2023-04-05T07:49:14.540Z,3.97
2023-04-05T07:51:43.330Z,4.10
2023-04-05T07:54:10.872Z,3.30
2023-04-05T07:56:38.364Z,3.57
2023-04-05T07:59:05.903Z,4.17
2023-04-05T08:01:33.397Z,3.77
2023-04-05T08:04:02.238Z,4.83
2023-04-05T08:06:29.787Z,4.20
2023-04-05T08:08:57.283Z,7.70
2023-04-05T08:11:26.106Z,4.23
2023-04-05T08:13:54.423Z,4.83
2023-04-05T08:16:21.919Z,4.23
2023-04-05T08:18:49.477Z,3.70
2023-04-05T08:21:18.342Z,6.70
2023-04-05T08:23:45.970Z,9.20
2023-04-05T08:26:13.686Z,3.77
2023-04-05T08:28:41.187Z,4.03
2023-04-05T08:31:08.848Z,4.47
2023-04-05T08:33:36.777Z,4.50
2023-04-05T08:36:08.231Z,2.90
2023-04-05T08:38:37.269Z,3.90
2023-04-05T08:41:09.466Z,4.33
2023-04-05T08:43:49.407Z,3.40
2023-04-05T08:46:17.436Z,4.50
2023-04-05T08:48:44.922Z,4.13
2023-04-05T08:51:12.670Z,3.30
2023-04-05T08:53:41.515Z,2.90
2023-04-05T08:56:09.972Z,3.90
2023-04-05T08:58:38.656Z,3.03
2023-04-05T09:01:06.888Z,2.97
2023-04-05T09:03:37.469Z,2.73
2023-04-05T09:06:07.282Z,3.37
2023-04-05T09:08:34.859Z,3.67
2023-04-05T09:11:03.714Z,3.43
2023-04-05T09:13:32.016Z,3.50
2023-04-05T09:16:02.322Z,3.63
2023-04-05T09:18:29.901Z,3.43
2023-04-05T09:20:58.752Z,3.77
2023-04-05T09:23:26.620Z,2.80
2023-04-05T09:25:54.142Z,3.20
2023-04-05T09:28:22.943Z,3.47
2023-04-05T09:30:50.460Z,3.37
2023-04-05T09:33:21.120Z,3.40
2023-04-05T09:35:50.877Z,2.77
2023-04-05T09:38:18.383Z,2.80
2023-04-05T09:40:47.076Z,2.73
2023-04-05T09:43:16.152Z,2.40
2023-04-05T09:45:46.028Z,3.23
2023-04-05T09:48:13.627Z,3.20
2023-04-05T09:50:41.395Z,3.03
2023-04-05T09:53:15.561Z,2.77
2023-04-05T09:55:43.641Z,3.23
2023-04-05T09:58:13.293Z,3.57
2023-04-05T10:01:03.262Z,3.63
2023-04-05T10:03:47.732Z,3.00
2023-04-05T10:06:15.553Z,3.13
2023-04-05T10:08:43.135Z,3.10
2023-04-05T10:11:13.478Z,3.47
2023-04-05T10:13:41.307Z,3.50
2023-04-05T10:16:13.338Z,3.43
2023-04-05T10:18:46.183Z,2.50
2023-04-05T10:21:16.513Z,2.60
2023-04-05T10:23:45.621Z,3.77
2023-04-05T10:26:17.924Z,3.90
2023-04-05T10:28:48.543Z,3.60
2023-04-05T10:31:36.385Z,2.87
2023-04-05T10:34:07.029Z,2.80
2023-04-05T10:36:40.735Z,3.00
2023-04-05T10:39:13.822Z,4.03
2023-04-05T10:41:44.043Z,2.80
2023-04-05T10:44:25.104Z,3.33
2023-04-05T10:46:56.331Z,2.37
2023-04-05T10:49:30.567Z,2.90
2023-04-05T10:51:58.547Z,3.10
2023-04-05T10:54:26.134Z,3.23
2023-04-05T10:56:54.088Z,3.27
2023-04-05T10:59:21.944Z,2.93
2023-04-05T11:01:49.889Z,3.13
2023-04-05T11:04:18.987Z,3.40
2023-04-05T11:06:47.957Z,3.47
2023-04-05T11:09:17.436Z,4.00
2023-04-05T11:11:46.299Z,3.07
2023-04-05T11:14:23.512Z,2.67
2023-04-05T11:16:55.329Z,3.47
2023-04-05T11:20:01.848Z,2.80
2023-04-05T11:22:30.755Z,3.50
2023-04-05T11:25:01.733Z,2.80
2023-04-05T11:27:30.877Z,2.47
2023-04-05T11:29:59.620Z,3.00
2023-04-05T11:32:40.691Z,2.80
2023-04-05T11:35:14.722Z,3.10
2023-04-05T11:38:08.372Z,3.43
2023-04-05T11:40:36.700Z,3.37
2023-04-05T11:43:06.061Z,2.73
2023-04-05T11:45:34.355Z,3.27
2023-04-05T11:48:02.538Z,2.67
2023-04-05T11:50:31.384Z,2.60
2023-04-05T11:53:22.943Z,2.80
2023-04-05T11:55:51.759Z,2.17
2023-04-05T11:58:21.369Z,2.90
2023-04-05T12:00:59.219Z,2.67
2023-04-05T12:03:28.860Z,2.83
2023-04-05T12:05:59.624Z,2.90
2023-04-05T12:08:39.787Z,2.70
2023-04-05T12:11:08.698Z,2.43
2023-04-05T12:13:36.626Z,2.23
2023-04-05T12:16:05.932Z,2.07
2023-04-05T12:18:34.458Z,2.50
2023-04-05T12:21:07.329Z,2.73
2023-04-05T12:23:35.856Z,2.63
2023-04-05T12:26:04.057Z,2.80
2023-04-05T12:28:53.464Z,3.37
2023-04-05T12:31:36.682Z,2.50
2023-04-05T12:34:04.235Z,2.30
2023-04-05T12:36:33.243Z,2.57
2023-04-05T12:39:00.908Z,2.60
2023-04-05T12:41:29.762Z,3.00
2023-04-05T12:44:01.438Z,2.60
2023-04-05T12:46:40.294Z,3.80
2023-04-05T12:49:07.907Z,2.97
2023-04-05T12:51:36.741Z,2.80
2023-04-05T12:54:04.934Z,2.40
2023-04-05T12:56:32.495Z,2.80
2023-04-05T12:59:00.303Z,2.50
2023-04-05T13:01:27.833Z,2.20
2023-04-05T13:04:01.884Z,2.70
2023-04-05T13:06:41.777Z,2.47
2023-04-05T13:09:09.240Z,2.70
2023-04-05T13:11:36.712Z,3.30
2023-04-05T13:14:04.285Z,2.37
2023-04-05T13:16:31.771Z,2.60
2023-04-05T13:18:59.394Z,3.13
2023-04-05T13:21:27.169Z,3.30
2023-04-05T13:23:55.969Z,3.00
2023-04-05T13:26:23.508Z,2.50
2023-04-05T13:28:51.020Z,2.90
2023-04-05T13:31:18.545Z,3.90
2023-04-05T13:33:46.125Z,2.53
2023-04-05T13:36:13.629Z,2.20
2023-04-05T13:38:41.121Z,2.27
2023-04-05T13:41:09.981Z,2.00
2023-04-05T13:43:37.517Z,2.33
2023-04-05T13:46:05.705Z,2.37
2023-04-05T13:48:33.143Z,2.27
2023-04-05T13:51:00.595Z,2.03
2023-04-05T13:53:28.708Z,2.47
2023-04-05T13:55:56.399Z,2.37
2023-04-05T13:58:25.218Z,2.67
2023-04-05T14:00:53.440Z,2.60
2023-04-05T14:03:21.160Z,3.13
2023-04-05T14:05:50.681Z,3.07
2023-04-05T14:08:19.594Z,3.10
2023-04-05T14:10:47.049Z,2.60
2023-04-05T14:13:16.240Z,2.77
2023-04-05T14:15:45.068Z,2.97
2023-04-05T14:18:12.634Z,2.37
2023-04-05T14:20:40.478Z,2.70
2023-04-05T14:23:08.240Z,2.43
2023-04-05T14:25:35.712Z,2.47
2023-04-05T14:28:03.422Z,3.03
2023-04-05T14:30:31.164Z,3.33
2023-04-05T14:33:00.430Z,2.33
2023-04-05T14:35:28.077Z,2.57
2023-04-05T14:37:55.613Z,2.80
2023-04-05T14:40:23.240Z,2.80
2023-04-05T14:42:50.932Z,3.07
2023-04-05T14:45:18.792Z,2.20
2023-04-05T14:47:46.314Z,3.00
2023-04-05T14:50:15.243Z,2.40
2023-04-05T14:52:42.722Z,2.67
2023-04-05T14:55:12.300Z,2.60
2023-04-05T14:57:39.806Z,2.40
2023-04-05T15:00:08.998Z,3.10
2023-04-05T15:02:37.802Z,2.90
2023-04-05T15:05:06.223Z,1.97
2023-04-05T15:07:35.046Z,2.23
2023-04-05T15:10:02.563Z,2.27
2023-04-05T15:12:30.034Z,2.23
2023-04-05T15:14:57.625Z,2.20
2023-04-05T15:17:25.529Z,3.13
2023-04-05T15:19:53.013Z,2.17
2023-04-05T15:22:23.328Z,2.43
2023-04-05T15:24:52.194Z,5.23
2023-04-05T15:27:19.678Z,4.53
2023-04-05T15:29:47.176Z,3.03
2023-04-05T15:32:14.643Z,3.03
2023-04-05T15:34:42.105Z,2.70
2023-04-05T15:37:10.170Z,2.33
2023-04-05T15:39:37.728Z,2.70
2023-04-05T15:42:06.757Z,2.60
2023-04-05T15:44:34.306Z,2.83
2023-04-05T15:47:03.549Z,2.33
2023-04-05T15:49:31.062Z,4.30
2023-04-05T15:52:00.018Z,3.33
2023-04-05T15:54:27.589Z,2.60
2023-04-05T15:56:55.164Z,2.90
2023-04-05T15:59:23.993Z,2.80
2023-04-05T16:01:51.618Z,6.00
2023-04-05T16:04:19.318Z,3.47
2023-04-05T16:06:46.863Z,2.77
2023-04-05T16:09:14.310Z,3.00
2023-04-05T16:11:41.773Z,2.73
2023-04-05T16:14:11.353Z,2.63
2023-04-05T16:16:52.397Z,2.50
2023-04-05T16:19:21.915Z,2.47
2023-04-05T16:21:49.529Z,2.63
2023-04-05T16:24:17.063Z,2.97
2023-04-05T16:26:44.615Z,2.70
2023-04-05T16:29:12.157Z,3.03
2023-04-05T16:31:41.019Z,2.70
2023-04-05T16:34:08.491Z,2.50
2023-04-05T16:36:36.209Z,3.20
2023-04-05T16:39:04.145Z,3.03
2023-04-05T16:41:31.829Z,2.20
2023-04-05T16:43:59.320Z,2.10
2023-04-05T16:46:30.582Z,3.07
2023-04-05T16:48:59.525Z,3.37
2023-04-05T16:51:27.417Z,3.27
2023-04-05T16:53:54.880Z,3.20
2023-04-05T16:56:22.788Z,4.27
2023-04-05T16:58:50.366Z,3.23
2023-04-05T17:01:18.027Z,4.07
2023-04-05T17:03:47.122Z,5.40
2023-04-05T17:06:16.712Z,2.47
2023-04-05T17:08:44.283Z,3.07
2023-04-05T17:11:11.751Z,2.77
2023-04-05T17:13:39.291Z,4.50
2023-04-05T17:16:07.802Z,3.10
2023-04-05T17:18:35.481Z,3.60
2023-04-05T17:21:03.009Z,2.80
2023-04-05T17:23:31.800Z,4.33
2023-04-05T17:25:59.433Z,6.20
2023-04-05T17:28:26.988Z,8.43
2023-04-05T17:30:54.548Z,5.00
2023-04-05T17:33:22.055Z,3.90
2023-04-05T17:35:50.074Z,3.73
2023-04-05T17:38:17.571Z,3.27
2023-04-05T17:40:46.397Z,2.87
2023-04-05T17:43:14.103Z,3.10
2023-04-05T17:45:41.675Z,3.57
2023-04-05T17:48:09.423Z,3.10
2023-04-05T17:50:37.136Z,3.70
2023-04-05T17:53:04.841Z,4.10
2023-04-05T17:55:33.564Z,3.47
2023-04-05T17:58:02.440Z,3.13
2023-04-05T18:00:29.991Z,2.90
2023-04-05T18:02:57.521Z,2.30
2023-04-05T18:05:27.005Z,2.73
2023-04-05T18:07:54.571Z,3.20
2023-04-05T18:10:23.412Z,3.20
2023-04-05T18:12:51.521Z,3.57
2023-04-05T18:15:20.625Z,2.80
2023-04-05T18:17:48.129Z,3.97
2023-04-05T18:20:15.628Z,2.90
2023-04-05T18:22:43.224Z,3.60
2023-04-05T18:25:11.745Z,2.97
2023-04-05T18:27:39.314Z,3.13
2023-04-05T18:30:08.278Z,1.90
2023-04-05T18:32:37.263Z,2.53
2023-04-05T18:35:05.259Z,4.43
2023-04-05T18:37:32.777Z,8.60
2023-04-05T18:40:00.382Z,9.50
2023-04-05T18:42:27.840Z,8.50
2023-04-05T18:44:55.582Z,7.20
2023-04-05T18:47:23.331Z,5.27
2023-04-05T18:49:52.221Z,4.30
2023-04-05T18:52:23.641Z,4.40
2023-04-05T18:54:51.217Z,3.67
2023-04-05T18:57:18.818Z,3.83
2023-04-05T18:59:46.358Z,3.83
2023-04-05T19:02:13.887Z,5.37
2023-04-05T19:04:41.388Z,4.50
2023-04-05T19:07:10.216Z,4.27
2023-04-05T19:09:38.448Z,3.80
2023-04-05T19:12:06.626Z,2.80
2023-04-05T19:14:34.772Z,2.70
2023-04-05T19:17:02.361Z,3.00
2023-04-05T19:19:30.042Z,3.00
2023-04-05T19:21:58.402Z,2.90
2023-04-05T19:24:27.737Z,3.40
2023-04-05T19:26:56.787Z,2.80
2023-04-05T19:29:24.346Z,2.70
2023-04-05T19:31:52.043Z,3.13
2023-04-05T19:34:19.718Z,2.20
2023-04-05T19:36:47.295Z,2.20
2023-04-05T19:39:14.831Z,2.20
2023-04-05T19:41:44.426Z,2.30
2023-04-05T19:44:12.966Z,2.43
2023-04-05T19:46:41.408Z,2.53
2023-04-05T19:49:10.914Z,2.00
2023-04-05T19:51:39.023Z,2.83
2023-04-05T19:54:11.682Z,4.13
2023-04-05T19:56:39.367Z,6.80
2023-04-05T19:59:25.947Z,5.50
2023-04-05T20:01:53.452Z,5.10
2023-04-05T20:04:22.552Z,3.10
2023-04-05T20:06:53.171Z,2.93
2023-04-05T20:09:21.253Z,2.50
2023-04-05T20:11:51.266Z,2.20
2023-04-05T20:14:21.163Z,3.47
2023-04-05T20:16:49.637Z,2.70
2023-04-05T20:19:17.433Z,2.10
2023-04-05T20:21:45.638Z,2.40
2023-04-05T20:24:16.580Z,2.03
2023-04-05T20:26:44.437Z,2.57
2023-04-05T20:29:16.753Z,2.23
2023-04-05T20:31:46.175Z,2.30
2023-04-05T20:34:15.365Z,2.33
2023-04-05T20:36:46.374Z,2.40
2023-04-05T20:39:13.850Z,2.90
2023-04-05T20:41:41.446Z,2.63
2023-04-05T20:44:08.923Z,2.10
2023-04-05T20:46:36.467Z,2.20
2023-04-05T20:49:05.752Z,2.70
2023-04-05T20:51:33.268Z,3.10
2023-04-05T20:54:01.145Z,2.77
2023-04-05T20:56:28.620Z,3.47
2023-04-05T20:58:56.386Z,2.97
2023-04-05T21:01:24.372Z,3.10
2023-04-05T21:03:53.046Z,2.87
2023-04-05T21:06:22.158Z,2.83
2023-04-05T21:08:49.630Z,2.60
2023-04-05T21:11:17.099Z,3.27
2023-04-05T21:13:44.536Z,3.07
2023-04-05T21:16:12.240Z,3.83
2023-04-05T21:18:39.966Z,3.03
2023-04-05T21:21:07.480Z,2.97
2023-04-05T21:23:36.426Z,2.93
2023-04-05T21:26:04.542Z,3.50
2023-04-05T21:28:32.147Z,2.50
2023-04-05T21:30:59.669Z,2.83
2023-04-05T21:33:27.221Z,2.87
2023-04-05T21:35:54.730Z,2.30
2023-04-05T21:38:22.212Z,2.60
2023-04-05T21:40:51.085Z,2.87
2023-04-05T21:43:18.580Z,2.60
2023-04-05T21:45:46.864Z,2.50
2023-04-05T21:48:14.350Z,3.17
2023-04-05T21:50:41.877Z,3.30
2023-04-05T21:53:09.671Z,3.53
2023-04-05T21:55:37.192Z,4.00
2023-04-05T21:58:06.158Z,3.30
2023-04-05T22:00:33.756Z,3.00
2023-04-05T22:03:01.297Z,2.80
2023-04-05T22:05:37.406Z,3.33
2023-04-05T22:08:07.220Z,3.53
2023-04-05T22:10:35.204Z,3.53
2023-04-05T22:13:02.764Z,4.10
2023-04-05T22:15:31.662Z,3.20
2023-04-05T22:17:59.325Z,3.67
2023-04-05T22:20:26.957Z,2.97
2023-04-05T22:22:54.521Z,3.00
2023-04-05T22:25:21.996Z,3.50
2023-04-05T22:27:49.490Z,3.53
2023-04-05T22:30:17.215Z,3.70
2023-04-05T22:32:46.668Z,4.10
2023-04-05T22:35:14.189Z,3.60
2023-04-05T22:37:41.719Z,3.77
2023-04-05T22:40:10.188Z,3.83
2023-04-05T22:42:38.814Z,3.10
2023-04-05T22:45:07.336Z,3.30
2023-04-05T22:47:34.843Z,3.63
2023-04-05T22:50:03.729Z,3.33
2023-04-05T22:52:31.190Z,3.70
2023-04-05T22:54:58.657Z,3.80
2023-04-05T23:00:21.585Z,3.80
2023-04-05T23:02:49.136Z,3.87
2023-04-05T23:05:18.135Z,3.33
2023-04-05T23:07:45.632Z,3.37
2023-04-05T23:10:13.122Z,3.30
2023-04-05T23:12:40.975Z,3.60
2023-04-05T23:15:09.134Z,3.27
2023-04-05T23:17:36.683Z,3.63
2023-04-05T23:20:05.689Z,4.30
2023-04-05T23:22:35.964Z,3.27
2023-04-05T23:25:04.343Z,4.00
2023-04-05T23:27:32.032Z,4.57
2023-04-05T23:29:59.731Z,3.90
2023-04-05T23:32:27.296Z,3.93
2023-04-05T23:34:54.790Z,3.97
2023-04-05T23:37:22.254Z,4.07
2023-04-05T23:39:51.081Z,3.53
2023-04-05T23:42:18.537Z,3.43
2023-04-05T23:44:46.021Z,4.20
2023-04-05T23:47:13.506Z,3.87
2023-04-05T23:49:41.076Z,3.80
2023-04-05T23:52:08.687Z,4.70
2023-04-05T23:54:36.158Z,3.87
2023-04-05T23:57:05.150Z,4.40
2023-04-05T23:59:32.673Z,3.40
